Blanco, New Mexico
Current Conditions -  °F | °C
As of 7:10 AM on Friday 19 Dec 2014 (Local Time) from KFMN Reporting Station
Moderate Fog Moderate Fog  
Wind Chill: 17°   Ceiling: 200
Heat Index: 23°   Visibility: 0.5mi
Dew Point: 21°   Wind: 5mph
Humidity: 92%   Direction: 50°NE
Pressure: 30.23"   Gusts: NA
Location:  36.72°N, 107.83°W
Report Text: KFMN 191410Z 05004KT 1/2SM FZFG VV002 M05/M06 A3023 RMK AO2 T10501061
Loading
Personal Weather Stations






























Interactive Weather Map New forecast layout! Learn more

10-Day Weather Forecast

Advertisements
Track Severe Weather on mobile